Prosperity, Pennsylvania
Current Conditions -  °F | °C
As of 8:15 AM on Saturday 25 Oct 2014 (Local Time) from KAFJ Reporting Station
Broken Clouds Broken Clouds  
Wind Chill: 44°   Ceiling: 3800
Heat Index: 46°   Visibility: 10mi
Dew Point: 37°   Wind: 5mph
Humidity: 71%   Direction: 210°SSW
Pressure: 29.99"   Gusts: NA
Location:  40.05°N, 80.29°W
Report Text: KAFJ 251215Z AUTO 21004KT 10SM BKN038 08/03 A2999 RMK AO1
Loading
Personal Weather Stations






























Interactive Weather Map
Tropical Storm Tracking
New forecast layout! Learn more

10-Day Weather Forecast

Advertisements
Track Severe Weather on mobile